Huvudsida
METAR-TAF:

METAR-TAF

Flygplatser :

Kemi-Torneå flygplats

Kemi, Finland

latitud: 65-47N, longitud: 024-35E, höjd: 15 m

Aktuellt väderrapport

Denna rapport gjordes för 39 minuter sedan, klockan 12:50 UTC
Vind 11 kt från syd
Temperatur 16°C
Fuktighet 88%
Tryck 1009 hPa
Sikt 10 km eller mer
Brutna moln på en höjd av 1500 ft
Mulet på en höjd av 2200 ft

METAR: EFKE 171250Z AUTO 19011KT 9999 BKN015 OVC022 16/14 Q1009

Tid: 16:29 (13:29 UTC)

Väderprognos

Denna rapport gjordes för 1 timme och 58 minuter sedan, klockan 11:31 UTC
Prognos gäller från 17 kl. 12 UTC till 17 kl. 18 UTC
Vind 10 kt från syd
Sikt 10 km eller mer
Mulet på en höjd av 1800 ft
Temporärt
från 17 kl. 12 UTC till 17 kl. 14 UTC
Brutna moln på en höjd av 1200 ft
Få moln på en höjd av 1500 ft, Cumulonimbus.

TAF: EFKE 171131Z 1712/1718 17010KT 9999 OVC018 TEMPO 1712/1714 BKN012 FEW015CB

Aktuella väderrapporter och prognoser från 4000 flygplatser (METAR- och TAF-rapporter).

De tillgängliga stationerna syns som gula och röda prickar på kartan.

För musen över prickarna för att se namnen på stationerna.

Klicka sedan för att få väderrapporter och prognoser.

För att ändra kartan: Klicka på de gröna knapparna med ett svart kors på för att zooma in; den gröna knappen med ett streck på för att zooma ut; eller på de gröna pilarna för angränsande kartor.


METAR-TAF: